Time;durP1;ratioP1;P1;durP2;ratioP2;P2;SDS_P1;SDS_P2;PMS_P1;PMS_P2;Temp;Humidity;BMP_temperature;BMP_pressure;BME280_temperature;BME280_humidity;BME280_pressure;Samples;Min_cycle;Max_cycle;Signal;HPM_P1;HPM_P2
2020/12/27 00:02:10;;;;;;;1.27;0.43;;;2.00;76.00;;;;;;5051261;28;20087;-58
2020/12/27 00:04:36;;;;;;;;;;;2.00;77.60;;;;;;5040654;28;20037;-54
2020/12/27 00:07:03;;;;;;;1.45;0.40;;;1.90;79.50;;;;;;5044348;28;19975;-55
2020/12/27 00:09:29;;;;;;;1.65;0.60;;;1.90;78.70;;;;;;5042790;28;20039;-58
2020/12/27 00:11:55;;;;;;;1.52;0.32;;;1.80;81.60;;;;;;5043010;28;20175;-57
2020/12/27 00:14:21;;;;;;;1.13;0.38;;;1.70;81.70;;;;;;5030062;28;20029;-56
2020/12/27 00:16:47;;;;;;;1.88;0.32;;;1.50;83.70;;;;;;5035625;28;20139;-58
2020/12/27 00:19:12;;;;;;;1.33;0.50;;;1.30;85.80;;;;;;5048710;28;20469;-58
2020/12/27 00:21:38;;;;;;;2.00;0.55;;;1.30;85.30;;;;;;5046642;28;20028;-53
2020/12/27 00:24:04;;;;;;;1.95;0.50;;;1.30;87.10;;;;;;5043324;28;20124;-55
2020/12/27 00:26:29;;;;;;;1.90;0.40;;;1.20;87.40;;;;;;5048838;28;20555;-58
2020/12/27 00:28:55;;;;;;;1.13;0.57;;;1.20;87.30;;;;;;5044143;28;20056;-57
2020/12/27 00:31:21;;;;;;;2.00;0.40;;;1.20;88.50;;;;;;5038815;28;20117;-55
2020/12/27 00:33:47;;;;;;;1.67;0.60;;;1.20;85.90;;;;;;5048639;28;20056;-54
2020/12/27 00:36:18;;;;;;;1.58;0.47;;;1.20;86.20;;;;;;5049879;28;20415;-58
2020/12/27 00:38:44;;;;;;;2.00;0.47;;;1.30;85.50;;;;;;5047212;28;20067;-59
2020/12/27 00:41:09;;;;;;;1.45;0.50;;;1.40;85.00;;;;;;5046011;28;20047;-58
2020/12/27 00:43:35;;;;;;;1.90;0.60;;;1.30;85.80;;;;;;5048455;28;20029;-55
2020/12/27 00:46:01;;;;;;;1.73;0.50;;;1.20;88.10;;;;;;5049597;28;20326;-53
2020/12/27 00:48:26;;;;;;;1.48;0.60;;;1.00;87.80;;;;;;5049079;28;20040;-56
2020/12/27 00:50:52;;;;;;;1.05;0.50;;;1.00;90.80;;;;;;5030700;28;20071;-59
2020/12/27 00:53:18;;;;;;;1.63;0.50;;;0.90;88.40;;;;;;5048535;28;20500;-56
2020/12/27 00:55:44;;;;;;;1.08;0.50;;;0.90;89.00;;;;;;5049544;28;20042;-52
2020/12/27 00:58:10;;;;;;;1.20;0.47;;;0.90;89.30;;;;;;5034562;28;20072;-53
2020/12/27 01:00:35;;;;;;;1.63;0.40;;;0.80;90.30;;;;;;5046709;28;20041;-53
2020/12/27 01:03:01;;;;;;;2.58;0.47;;;0.60;92.00;;;;;;5047274;28;20076;-58
2020/12/27 01:05:27;;;;;;;1.70;0.50;;;0.30;92.10;;;;;;5030921;28;20087;-55
2020/12/27 01:07:52;;;;;;;3.22;0.60;;;0.30;92.10;;;;;;5043520;28;20599;-53
2020/12/27 01:10:18;;;;;;;2.53;0.68;;;0.30;93.60;;;;;;5048297;28;20029;-54
2020/12/27 01:12:46;;;;;;;1.15;0.55;;;0.30;92.80;;;;;;5048465;28;20183;-52
2020/12/27 01:15:11;;;;;;;1.00;0.32;;;0.30;94.00;;;;;;5049108;28;20044;-57
2020/12/27 01:17:38;;;;;;;2.30;0.30;;;0.50;90.10;;;;;;5032848;28;20038;-56
2020/12/27 01:20:04;;;;;;;1.00;0.40;;;0.80;90.80;;;;;;5041738;28;20488;-55
2020/12/27 01:22:33;;;;;;;1.00;0.30;;;0.70;92.50;;;;;;5043460;28;20036;-52
2020/12/27 01:25:00;;;;;;;1.55;0.45;;;0.50;93.50;;;;;;5042173;28;20507;-55
2020/12/27 01:27:26;;;;;;;1.30;0.40;;;0.20;94.30;;;;;;5030254;28;20048;-56
2020/12/27 01:29:52;;;;;;;1.35;0.40;;;0.20;93.70;;;;;;5047705;28;20417;-52
2020/12/27 01:32:18;;;;;;;1.85;0.40;;;0.30;93.10;;;;;;5043300;28;20400;-57
2020/12/27 01:34:44;;;;;;;1.90;0.30;;;0.50;92.00;;;;;;5029096;28;20037;-56
2020/12/27 01:37:10;;;;;;;1.33;0.40;;;0.50;93.00;;;;;;5031112;28;20029;-56
2020/12/27 01:39:35;;;;;;;1.25;0.50;;;0.60;93.20;;;;;;5036905;28;20052;-56
2020/12/27 01:42:01;;;;;;;0.73;0.25;;;0.60;92.50;;;;;;5047624;28;20104;-57
2020/12/27 01:44:27;;;;;;;1.15;0.60;;;0.80;87.50;;;;;;5048612;28;20451;-57
2020/12/27 01:46:52;;;;;;;1.10;0.30;;;0.90;86.60;;;;;;5047276;28;20037;-57
2020/12/27 01:49:18;;;;;;;0.90;0.30;;;0.90;89.10;;;;;;5035677;28;20039;-57
2020/12/27 01:51:44;;;;;;;0.88;0.25;;;1.00;88.70;;;;;;5048672;28;20029;-54
2020/12/27 01:54:09;;;;;;;4.78;0.30;;;0.90;87.00;;;;;;5047156;28;20071;-49
2020/12/27 01:56:40;;;;;;;1.10;0.40;;;1.00;88.40;;;;;;5030379;28;20059;-54
2020/12/27 01:59:14;;;;;;;0.80;0.30;;;0.90;89.50;;;;;;5037018;28;20404;-51
2020/12/27 02:01:40;;;;;;;1.33;0.47;;;0.80;88.70;;;;;;5048391;28;20541;-55
2020/12/27 02:04:06;;;;;;;1.27;0.40;;;0.70;90.60;;;;;;5045601;28;20044;-55
2020/12/27 02:06:32;;;;;;;0.80;0.30;;;0.60;91.70;;;;;;5029937;28;20060;-54
2020/12/27 02:08:59;;;;;;;1.42;0.30;;;0.50;93.20;;;;;;5039480;28;20040;-49
2020/12/27 02:11:25;;;;;;;2.22;0.40;;;0.50;91.40;;;;;;5028172;28;20473;-49
2020/12/27 02:13:59;;;;;;;0.88;0.30;;;0.50;91.30;;;;;;5041051;28;20044;-54
2020/12/27 02:16:30;;;;;;;1.77;0.40;;;0.40;92.30;;;;;;5048129;28;20119;-54
2020/12/27 02:19:01;;;;;;;1.55;0.30;;;0.40;91.80;;;;;;5045136;28;20404;-55
2020/12/27 02:21:28;;;;;;;1.05;0.28;;;0.50;91.40;;;;;;5043926;28;20034;-52
2020/12/27 02:23:57;;;;;;;0.55;0.20;;;0.40;91.30;;;;;;5029022;28;20478;-54
2020/12/27 02:26:27;;;;;;;0.50;0.20;;;0.40;91.50;;;;;;5030748;28;20440;-57
2020/12/27 02:28:55;;;;;;;0.63;0.20;;;0.50;83.50;;;;;;5047074;28;20033;-58
2020/12/27 02:31:22;;;;;;;1.52;0.20;;;1.00;84.30;;;;;;5048206;28;20029;-56
2020/12/27 02:33:48;;;;;;;0.70;0.20;;;1.00;84.10;;;;;;5036995;28;20045;-52
2020/12/27 02:36:14;;;;;;;2.45;0.38;;;1.10;78.30;;;;;;5028187;28;20086;-55
2020/12/27 02:38:39;;;;;;;1.13;0.40;;;1.50;74.40;;;;;;5039436;28;20056;-55
2020/12/27 02:41:19;;;;;;;1.70;0.35;;;1.50;76.50;;;;;;5046691;28;20525;-57
2020/12/27 02:43:46;;;;;;;1.13;0.28;;;1.20;80.50;;;;;;5037680;28;20330;-55
2020/12/27 02:46:26;;;;;;;1.23;0.30;;;1.10;82.90;;;;;;5028162;28;20382;-54
2020/12/27 02:48:52;;;;;;;0.52;0.15;;;0.90;83.40;;;;;;5038740;28;20041;-52
2020/12/27 02:51:19;;;;;;;1.50;0.68;;;0.90;84.70;;;;;;5028209;28;20029;-56
2020/12/27 02:53:48;;;;;;;0.75;0.10;;;0.80;86.70;;;;;;5030751;28;20041;-53
2020/12/27 02:56:14;;;;;;;0.88;0.20;;;0.60;87.90;;;;;;5028137;28;20043;-55
2020/12/27 02:58:41;;;;;;;1.33;0.20;;;0.70;83.80;;;;;;5032371;28;20500;-55
2020/12/27 03:01:06;;;;;;;0.68;0.20;;;0.80;85.00;;;;;;5049387;28;20108;-55
2020/12/27 03:03:32;;;;;;;0.77;0.20;;;0.80;83.10;;;;;;5045175;28;20112;-53
2020/12/27 03:05:58;;;;;;;1.13;0.30;;;1.00;80.40;;;;;;5043117;28;20408;-57
2020/12/27 03:08:24;;;;;;;0.68;0.20;;;1.30;76.50;;;;;;5050285;28;20041;-54
2020/12/27 03:10:49;;;;;;;0.93;0.13;;;1.30;75.80;;;;;;5050656;28;20040;-56
2020/12/27 03:13:15;;;;;;;0.55;0.17;;;1.30;76.70;;;;;;5048349;28;20071;-58
2020/12/27 03:15:41;;;;;;;0.75;0.15;;;1.30;77.00;;;;;;5051307;28;20476;-56
2020/12/27 03:18:06;;;;;;;1.05;0.20;;;1.20;79.10;;;;;;5049964;28;20052;-56
2020/12/27 03:20:32;;;;;;;0.65;0.10;;;1.10;79.50;;;;;;5036589;28;20041;-57
2020/12/27 03:22:58;;;;;;;0.63;0.20;;;1.10;77.80;;;;;;5031293;28;20033;-55
2020/12/27 03:25:24;;;;;;;0.47;0.13;;;1.00;83.30;;;;;;5048719;28;20036;-56
2020/12/27 03:27:49;;;;;;;0.60;0.28;;;0.90;84.90;;;;;;5051373;28;20408;-55
2020/12/27 03:30:15;;;;;;;1.67;0.30;;;0.70;84.90;;;;;;5035656;28;20389;-53
2020/12/27 03:32:41;;;;;;;0.85;0.20;;;0.50;87.70;;;;;;5031092;28;20060;-58
2020/12/27 03:35:07;;;;;;;0.85;0.30;;;0.40;89.70;;;;;;5045095;28;20452;-55
2020/12/27 03:37:35;;;;;;;0.65;0.20;;;0.40;91.00;;;;;;5050929;28;20082;-56
2020/12/27 03:40:04;;;;;;;1.20;0.28;;;0.30;87.90;;;;;;5049950;28;20052;-57
2020/12/27 03:42:30;;;;;;;2.22;0.20;;;0.30;90.40;;;;;;5047748;28;20463;-58
2020/12/27 03:44:56;;;;;;;3.15;0.20;;;0.30;90.20;;;;;;5045340;28;20125;-57
2020/12/27 03:47:22;;;;;;;0.63;0.20;;;0.20;92.80;;;;;;5049906;28;20373;-55
2020/12/27 03:49:48;;;;;;;1.27;0.30;;;0.10;91.90;;;;;;5032255;28;20048;-58
2020/12/27 03:52:14;;;;;;;1.05;0.52;;;-0.10;94.90;;;;;;5029724;28;20358;-53
2020/12/27 03:54:39;;;;;;;1.13;0.20;;;0.00;91.80;;;;;;5045713;28;20038;-57
2020/12/27 03:57:05;;;;;;;0.40;0.20;;;0.00;92.80;;;;;;5049863;28;20114;-54
2020/12/27 03:59:31;;;;;;;1.35;0.20;;;0.00;92.90;;;;;;5035575;28;20080;-54
2020/12/27 04:01:56;;;;;;;0.68;0.20;;;0.10;93.00;;;;;;5029816;28;20059;-56
2020/12/27 04:04:22;;;;;;;1.92;0.20;;;0.10;92.20;;;;;;5034025;28;20381;-55
2020/12/27 04:06:48;;;;;;;0.75;0.15;;;0.10;91.10;;;;;;5047390;28;20057;-58
2020/12/27 04:09:13;;;;;;;1.20;0.15;;;0.30;90.50;;;;;;5037328;28;20107;-57
2020/12/27 04:11:39;;;;;;;0.47;0.10;;;0.30;89.00;;;;;;5030290;28;20060;-55
2020/12/27 04:14:05;;;;;;;0.70;0.10;;;0.50;88.20;;;;;;5031303;28;20148;-57
2020/12/27 04:16:31;;;;;;;0.52;0.10;;;0.80;79.60;;;;;;5036847;28;20036;-56
2020/12/27 04:18:56;;;;;;;0.68;0.13;;;1.20;73.20;;;;;;5049250;28;20090;-55
2020/12/27 04:21:22;;;;;;;0.22;0.10;;;1.60;69.60;;;;;;5048589;28;20033;-57
2020/12/27 04:23:48;;;;;;;0.35;0.20;;;1.80;68.40;;;;;;5049087;28;20039;-56
2020/12/27 04:26:15;;;;;;;0.50;0.10;;;1.90;67.50;;;;;;5045874;28;20037;-54
2020/12/27 04:28:41;;;;;;;0.73;0.10;;;2.00;66.20;;;;;;5036313;28;20107;-55
2020/12/27 04:31:12;;;;;;;1.75;0.20;;;2.20;65.50;;;;;;5048775;28;20856;-53
2020/12/27 04:33:38;;;;;;;0.40;0.20;;;2.10;65.50;;;;;;5048316;28;20078;-55
2020/12/27 04:36:04;;;;;;;0.30;0.10;;;2.10;65.30;;;;;;5050055;28;20037;-57
2020/12/27 04:38:30;;;;;;;2.53;0.20;;;2.10;65.30;;;;;;5047432;28;20572;-54
2020/12/27 04:40:56;;;;;;;0.75;0.20;;;2.10;66.20;;;;;;5050191;28;20056;-52
2020/12/27 04:43:23;;;;;;;1.85;0.20;;;2.10;66.40;;;;;;5047443;28;20158;-55
2020/12/27 04:45:52;;;;;;;0.50;0.20;;;2.00;67.10;;;;;;5049532;28;20108;-55
2020/12/27 04:48:19;;;;;;;0.45;0.10;;;2.00;70.10;;;;;;5048394;28;20021;-58
2020/12/27 04:50:45;;;;;;;1.20;0.17;;;1.90;70.80;;;;;;5049657;28;20057;-54
2020/12/27 04:53:12;;;;;;;0.90;0.15;;;1.80;69.30;;;;;;5047695;28;20067;-58
2020/12/27 04:55:39;;;;;;;1.15;0.20;;;1.70;73.80;;;;;;5042304;28;20438;-55
2020/12/27 04:58:08;;;;;;;1.42;0.20;;;1.50;75.50;;;;;;5048096;28;20439;-57
2020/12/27 05:00:34;;;;;;;0.80;0.20;;;1.30;77.10;;;;;;5049279;28;20485;-57
2020/12/27 05:03:02;;;;;;;6.22;0.30;;;1.10;77.40;;;;;;5048214;28;20067;-55
2020/12/27 05:05:28;;;;;;;0.52;0.20;;;1.00;79.90;;;;;;5032568;28;20057;-56
2020/12/27 05:07:54;;;;;;;1.73;0.20;;;0.80;83.20;;;;;;5032065;28;20598;-54
2020/12/27 05:10:21;;;;;;;1.10;0.20;;;0.70;84.10;;;;;;5029276;28;20033;-53
2020/12/27 05:12:47;;;;;;;1.10;0.22;;;0.60;83.80;;;;;;5044884;28;20126;-56
2020/12/27 05:15:13;;;;;;;1.02;0.30;;;0.50;86.60;;;;;;5032350;28;20069;-56
2020/12/27 05:17:39;;;;;;;0.70;0.55;;;0.50;88.80;;;;;;5048762;28;20398;-54
2020/12/27 05:20:14;;;;;;;0.82;0.20;;;0.50;88.60;;;;;;5049139;28;20036;-55
2020/12/27 05:22:41;;;;;;;1.25;0.38;;;0.50;85.60;;;;;;5041688;28;20069;-54
2020/12/27 05:25:07;;;;;;;0.77;0.17;;;0.50;85.70;;;;;;5038732;28;20040;-54
2020/12/27 05:27:40;;;;;;;1.38;0.20;;;0.30;89.30;;;;;;5047598;28;20048;-56
2020/12/27 05:30:06;;;;;;;0.68;0.30;;;0.30;89.90;;;;;;5049140;28;20358;-55
2020/12/27 05:32:32;;;;;;;2.65;0.60;;;0.40;86.50;;;;;;5046193;28;20083;-55
2020/12/27 05:35:08;;;;;;;1.88;0.60;;;0.40;86.80;;;;;;5037918;28;20393;-56
2020/12/27 05:37:34;;;;;;;0.60;0.15;;;0.30;87.70;;;;;;5047257;28;20045;-56
2020/12/27 05:40:06;;;;;;;0.80;0.25;;;0.30;89.60;;;;;;5048758;28;20043;-53
2020/12/27 05:42:32;;;;;;;0.65;0.20;;;0.30;90.00;;;;;;5045053;28;20040;-58
2020/12/27 05:45:10;;;;;;;2.65;0.40;;;0.30;89.30;;;;;;5033639;28;20037;-56
2020/12/27 05:47:36;;;;;;;2.25;0.68;;;0.40;89.30;;;;;;5047607;28;20037;-56
2020/12/27 05:50:02;;;;;;;2.92;0.50;;;0.20;90.70;;;;;;5048595;28;20382;-57
2020/12/27 05:52:37;;;;;;;3.42;0.57;;;0.20;91.10;;;;;;5046841;28;20040;-57
2020/12/27 05:55:04;;;;;;;2.55;0.55;;;0.10;91.20;;;;;;5043742;28;20088;-57
2020/12/27 05:57:34;;;;;;;2.22;0.40;;;0.00;93.20;;;;;;5031145;28;20041;-55
2020/12/27 06:00:04;;;;;;;3.30;0.38;;;0.00;91.80;;;;;;5040762;28;20072;-55
2020/12/27 06:02:43;;;;;;;3.08;0.60;;;-0.10;92.50;;;;;;5032575;28;20048;-57
2020/12/27 06:05:16;;;;;;;3.47;1.10;;;-0.20;95.10;;;;;;5028534;28;20040;-54
2020/12/27 06:07:45;;;;;;;5.72;1.60;;;-0.40;96.80;;;;;;5034088;28;20035;-54
2020/12/27 06:10:15;;;;;;;3.50;1.00;;;-0.30;96.20;;;;;;5047029;28;20029;-56
2020/12/27 06:13:05;;;;;;;2.60;0.50;;;-0.30;94.70;;;;;;5030192;28;20040;-54
2020/12/27 06:15:32;;;;;;;1.83;0.60;;;-0.20;95.20;;;;;;5031517;28;20064;-57
2020/12/27 06:18:11;;;;;;;3.72;0.43;;;-0.30;95.30;;;;;;5048432;28;20025;-55
2020/12/27 06:20:44;;;;;;;3.13;0.47;;;-0.20;96.00;;;;;;5047107;28;20047;-54
2020/12/27 06:23:11;;;;;;;1.20;0.40;;;-0.20;94.70;;;;;;5048220;28;20039;-57
2020/12/27 06:25:39;;;;;;;1.67;0.35;;;-0.10;94.00;;;;;;5046054;28;20037;-55
2020/12/27 06:28:05;;;;;;;1.13;0.32;;;0.00;94.50;;;;;;5028561;28;20044;-56
2020/12/27 06:30:32;;;;;;;2.55;0.40;;;0.10;94.30;;;;;;5030935;28;20129;-57
2020/12/27 06:33:16;;;;;;;2.15;0.35;;;0.00;92.80;;;;;;5049547;28;20036;-55
2020/12/27 06:35:45;;;;;;;1.10;0.30;;;0.10;91.10;;;;;;5050649;28;20468;-54
2020/12/27 06:38:37;;;;;;;1.50;0.30;;;0.40;86.00;;;;;;5050592;28;20033;-57
2020/12/27 06:41:08;;;;;;;1.42;0.50;;;0.90;83.00;;;;;;5046930;28;20128;-54
2020/12/27 06:43:45;;;;;;;5.05;0.90;;;1.30;77.80;;;;;;5029553;28;20557;-54
2020/12/27 06:46:28;;;;;;;2.45;0.50;;;1.50;76.70;;;;;;5032090;28;20061;-55
2020/12/27 06:49:11;;;;;;;1.13;0.40;;;1.60;76.40;;;;;;5038051;28;20048;-49
2020/12/27 06:51:41;;;;;;;2.08;0.40;;;1.60;75.00;;;;;;5044375;28;20049;-52
2020/12/27 06:54:07;;;;;;;1.90;0.50;;;1.60;75.20;;;;;;5039224;28;20091;-57
2020/12/27 06:56:46;;;;;;;2.22;0.40;;;1.70;74.00;;;;;;5046311;28;20037;-53
2020/12/27 06:59:12;;;;;;;1.10;0.25;;;1.80;73.90;;;;;;5033745;28;20366;-55
2020/12/27 07:01:38;;;;;;;1.00;0.40;;;1.80;73.80;;;;;;5036986;28;20516;-55
2020/12/27 07:04:15;;;;;;;1.88;0.45;;;1.80;75.50;;;;;;5037837;28;20043;-56
2020/12/27 07:06:46;;;;;;;0.50;0.20;;;1.90;73.40;;;;;;5045941;28;20045;-54
2020/12/27 07:09:26;;;;;;;0.88;0.30;;;1.80;74.30;;;;;;5049030;28;20040;-54
2020/12/27 07:12:05;;;;;;;5.93;1.77;;;1.80;73.80;;;;;;5043530;28;20049;-54
2020/12/27 07:14:38;;;;;;;4.50;1.42;;;1.80;77.90;;;;;;5049026;28;20036;-52
2020/12/27 07:17:06;;;;;;;2.13;0.82;;;1.40;81.00;;;;;;5032330;28;20048;-55
2020/12/27 07:19:34;;;;;;;2.70;1.30;;;1.20;83.10;;;;;;5030503;28;20124;-55
2020/12/27 07:22:04;;;;;;;4.45;1.15;;;0.90;84.00;;;;;;5031992;28;20105;-56
2020/12/27 07:24:34;;;;;;;3.35;1.27;;;0.80;87.10;;;;;;5044716;28;20051;-58
2020/12/27 07:27:02;;;;;;;4.72;1.30;;;0.60;88.10;;;;;;5043266;28;20037;-53
2020/12/27 07:29:29;;;;;;;4.45;1.08;;;0.90;87.90;;;;;;5050374;28;20040;-55
2020/12/27 07:31:58;;;;;;;3.63;1.08;;;0.80;87.40;;;;;;5037842;28;20124;-52
2020/12/27 07:34:29;;;;;;;4.60;0.80;;;0.70;87.00;;;;;;5037678;28;20042;-54
2020/12/27 07:37:00;;;;;;;2.22;0.60;;;0.60;89.30;;;;;;5032059;28;20033;-53
2020/12/27 07:39:49;;;;;;;2.15;1.00;;;0.60;88.70;;;;;;5031200;28;20052;-54
2020/12/27 07:42:35;;;;;;;3.88;1.52;;;0.60;86.80;;;;;;5043072;28;20052;-55
2020/12/27 07:45:05;;;;;;;2.35;0.90;;;0.60;88.80;;;;;;5016256;28;20042;-57
2020/12/27 07:47:42;;;;;;;4.55;0.70;;;0.60;89.70;;;;;;5013744;28;20071;-55
2020/12/27 07:50:16;;;;;;;3.20;0.95;;;0.60;87.50;;;;;;5044868;28;20037;-56
2020/12/27 07:52:54;;;;;;;4.00;0.60;;;0.70;88.40;;;;;;5048395;28;20063;-52
2020/12/27 07:55:26;;;;;;;3.00;1.00;;;0.80;89.50;;;;;;5047164;28;20117;-56
2020/12/27 07:57:53;;;;;;;2.40;0.85;;;0.90;90.10;;;;;;5047724;28;20037;-54
2020/12/27 08:00:45;;;;;;;3.72;0.95;;;0.80;91.90;;;;;;5050481;28;20136;-57
2020/12/27 08:03:11;;;;;;;3.92;0.93;;;0.80;90.90;;;;;;5042950;28;20041;-53
2020/12/27 08:05:37;;;;;;;4.18;0.95;;;0.90;90.90;;;;;;5049017;28;20049;-53
2020/12/27 08:08:11;;;;;;;3.70;1.35;;;0.90;91.30;;;;;;5048737;28;20040;-57
2020/12/27 08:10:37;;;;;;;10.93;3.78;;;0.90;91.70;;;;;;5034729;28;20037;-56
2020/12/27 08:13:05;;;;;;;8.60;3.15;;;1.00;91.20;;;;;;5040295;28;20036;-54
2020/12/27 08:15:35;;;;;;;5.72;2.63;;;1.00;91.90;;;;;;5050231;28;20036;-55
2020/12/27 08:18:04;;;;;;;5.38;2.85;;;1.00;91.90;;;;;;5049503;28;20043;-56
2020/12/27 08:20:32;;;;;;;5.03;2.38;;;1.00;91.30;;;;;;5048317;28;20045;-55
2020/12/27 08:23:06;;;;;;;3.60;1.60;;;1.10;91.50;;;;;;5043864;28;20063;-54
2020/12/27 08:25:34;;;;;;;4.22;2.00;;;1.10;91.10;;;;;;5047612;28;20068;-54
2020/12/27 08:28:02;;;;;;;3.17;0.90;;;1.20;90.70;;;;;;5044862;28;20040;-58
2020/12/27 08:30:29;;;;;;;3.60;1.20;;;1.30;89.70;;;;;;5011554;28;20067;-52
2020/12/27 08:33:10;;;;;;;2.85;0.80;;;1.30;90.80;;;;;;5032686;28;20405;-58
2020/12/27 08:35:37;;;;;;;2.08;0.80;;;1.50;90.20;;;;;;5031745;28;20040;-57
2020/12/27 08:38:15;;;;;;;2.47;0.93;;;1.50;89.30;;;;;;5040269;28;20041;-52
2020/12/27 08:40:45;;;;;;;3.80;1.67;;;1.50;89.80;;;;;;5033893;28;20072;-55
2020/12/27 08:43:37;;;;;;;5.85;1.80;;;1.50;89.60;;;;;;5035763;28;20041;-54
2020/12/27 08:46:07;;;;;;;1.80;0.80;;;1.60;90.10;;;;;;5040051;28;20052;-56
2020/12/27 08:48:42;;;;;;;2.60;0.85;;;1.70;90.00;;;;;;5038278;28;20056;-58
2020/12/27 08:51:13;;;;;;;2.15;0.98;;;1.80;90.70;;;;;;5049691;28;20471;-58
2020/12/27 08:53:44;;;;;;;3.53;1.25;;;1.90;90.00;;;;;;5036552;28;20033;-57
2020/12/27 08:56:11;;;;;;;3.25;1.50;;;2.00;90.00;;;;;;5034881;28;20029;-53
2020/12/27 08:58:36;;;;;;;2.80;0.70;;;2.10;90.20;;;;;;5036524;28;20095;-53
2020/12/27 09:01:19;;;;;;;3.03;1.02;;;2.10;87.70;;;;;;5029707;28;20037;-53
2020/12/27 09:03:45;;;;;;;5.70;1.35;;;2.30;86.60;;;;;;5029519;28;20437;-54
2020/12/27 09:06:14;;;;;;;3.42;0.60;;;2.40;87.70;;;;;;5030293;28;20048;-58
2020/12/27 09:08:39;;;;;;;2.15;0.70;;;2.40;85.80;;;;;;5048107;28;20024;-56
2020/12/27 09:11:05;;;;;;;2.20;0.95;;;2.50;86.60;;;;;;5037146;28;20025;-56
2020/12/27 09:13:39;;;;;;;3.10;1.00;;;2.50;86.30;;;;;;5041467;28;20048;-57
2020/12/27 09:16:05;;;;;;;4.13;0.90;;;2.70;87.00;;;;;;5032318;28;20029;-53
2020/12/27 09:18:35;;;;;;;3.38;0.82;;;2.90;83.30;;;;;;5033450;28;20267;-52
2020/12/27 09:21:06;;;;;;;2.38;0.85;;;3.00;81.90;;;;;;5045469;28;20497;-59
2020/12/27 09:23:33;;;;;;;2.13;0.80;;;3.10;81.20;;;;;;5047465;28;20043;-55
2020/12/27 09:26:09;;;;;;;2.83;0.90;;;3.00;81.40;;;;;;5046948;28;20055;-49
2020/12/27 09:28:37;;;;;;;3.05;1.30;;;3.10;81.60;;;;;;5046302;28;20041;-55
2020/12/27 09:31:08;;;;;;;4.15;1.55;;;3.10;81.30;;;;;;5037407;28;20029;-52
2020/12/27 09:33:37;;;;;;;4.78;1.00;;;3.20;81.00;;;;;;5028795;28;20041;-54
2020/12/27 09:36:07;;;;;;;4.65;1.30;;;3.20;82.60;;;;;;5030940;28;20162;-54
2020/12/27 09:38:38;;;;;;;4.28;1.30;;;3.30;81.80;;;;;;5044839;28;20375;-55
2020/12/27 09:41:10;;;;;;;3.15;0.98;;;3.30;83.30;;;;;;5031494;28;20041;-54
2020/12/27 09:43:59;;;;;;;4.47;1.60;;;3.30;81.30;;;;;;5028941;28;20397;-55
2020/12/27 09:46:45;;;;;;;3.47;1.25;;;3.40;80.70;;;;;;5040828;28;20029;-52
2020/12/27 09:49:23;;;;;;;2.20;0.82;;;3.60;79.90;;;;;;5047177;28;20028;-54
2020/12/27 09:52:11;;;;;;;4.80;2.20;;;3.50;82.10;;;;;;5040271;28;20069;-52
2020/12/27 09:54:38;;;;;;;3.85;1.40;;;3.60;81.40;;;;;;5049963;28;20067;-52
2020/12/27 09:57:21;;;;;;;5.40;2.15;;;3.70;80.10;;;;;;5038392;28;20032;-54
2020/12/27 09:59:49;;;;;;;3.75;1.80;;;3.60;79.80;;;;;;5041002;28;20056;-54
2020/12/27 10:02:16;;;;;;;4.55;1.90;;;3.70;81.10;;;;;;5034172;28;20030;-53
2020/12/27 10:04:42;;;;;;;4.38;1.52;;;3.70;79.90;;;;;;5047623;28;20053;-54
2020/12/27 10:07:09;;;;;;;3.72;1.30;;;3.70;80.90;;;;;;5046347;28;20204;-57
2020/12/27 10:09:35;;;;;;;6.00;1.98;;;3.80;80.20;;;;;;5047444;28;20033;-52
2020/12/27 10:12:01;;;;;;;5.55;2.05;;;3.80;80.10;;;;;;5030015;28;20038;-56
2020/12/27 10:14:27;;;;;;;4.07;1.80;;;3.80;79.30;;;;;;5029797;28;20397;-55
2020/12/27 10:16:56;;;;;;;3.47;1.58;;;3.80;79.80;;;;;;5044664;28;20043;-57
2020/12/27 10:19:22;;;;;;;4.22;1.55;;;3.90;79.20;;;;;;5045108;28;20776;-58
2020/12/27 10:21:48;;;;;;;4.47;1.63;;;3.90;79.10;;;;;;5049280;28;20029;-55
2020/12/27 10:24:15;;;;;;;4.05;1.50;;;3.90;79.40;;;;;;5056396;28;20547;-59
2020/12/27 10:26:41;;;;;;;4.00;1.40;;;3.90;80.00;;;;;;5038840;28;20025;-56
2020/12/27 10:29:07;;;;;;;4.88;1.83;;;3.90;79.40;;;;;;5041970;28;20029;-58
2020/12/27 10:31:33;;;;;;;4.47;1.73;;;3.90;78.50;;;;;;5046626;28;20053;-57
2020/12/27 10:33:59;;;;;;;4.28;1.70;;;4.00;79.30;;;;;;5045132;28;20032;-57
2020/12/27 10:36:25;;;;;;;5.68;1.55;;;4.00;78.70;;;;;;5032864;28;20067;-59
2020/12/27 10:38:51;;;;;;;5.25;1.77;;;4.10;78.70;;;;;;5047932;28;20768;-50
2020/12/27 10:41:17;;;;;;;3.75;1.45;;;4.00;79.00;;;;;;5041252;28;20041;-57
2020/12/27 10:43:49;;;;;;;3.03;1.20;;;4.10;78.70;;;;;;5023085;28;20029;-59
2020/12/27 10:46:17;;;;;;;3.78;1.70;;;4.10;78.80;;;;;;5035461;28;20033;-58
2020/12/27 10:48:44;;;;;;;3.03;1.48;;;4.20;77.80;;;;;;5031063;28;20032;-55
2020/12/27 10:51:10;;;;;;;7.40;2.10;;;4.20;77.40;;;;;;5046821;28;20604;-59
2020/12/27 10:53:36;;;;;;;5.60;1.67;;;4.20;77.30;;;;;;5043185;28;20140;-56
2020/12/27 10:56:02;;;;;;;7.05;1.35;;;4.20;77.50;;;;;;5038473;28;20037;-53
2020/12/27 10:58:28;;;;;;;3.35;1.83;;;4.30;76.40;;;;;;5030270;28;20025;-57
2020/12/27 11:00:54;;;;;;;4.05;1.77;;;4.20;77.50;;;;;;5035967;28;20025;-58
2020/12/27 11:03:20;;;;;;;4.47;1.27;;;4.20;79.10;;;;;;5041538;28;20068;-57
2020/12/27 11:05:46;;;;;;;2.70;1.25;;;4.40;77.40;;;;;;5043316;28;20045;-55
2020/12/27 11:08:12;;;;;;;3.53;1.38;;;4.30;79.60;;;;;;5043618;28;20033;-57
2020/12/27 11:10:38;;;;;;;2.88;1.45;;;4.30;78.30;;;;;;5040995;28;20037;-56
2020/12/27 11:13:04;;;;;;;5.25;1.75;;;4.30;80.50;;;;;;5046001;28;20036;-54
2020/12/27 11:15:33;;;;;;;3.03;1.23;;;4.30;80.40;;;;;;5040851;28;20119;-54
2020/12/27 11:18:01;;;;;;;2.83;1.50;;;4.40;78.30;;;;;;5038093;28;20638;-55
2020/12/27 11:20:28;;;;;;;4.55;1.75;;;4.40;78.60;;;;;;5032448;28;20056;-56
2020/12/27 11:22:55;;;;;;;4.25;1.65;;;4.50;77.80;;;;;;5042640;28;20041;-56
2020/12/27 11:25:21;;;;;;;3.03;1.17;;;4.60;78.00;;;;;;5032081;28;20469;-51
2020/12/27 11:27:47;;;;;;;8.38;2.38;;;4.50;76.60;;;;;;5036494;28;20083;-54
2020/12/27 11:30:12;;;;;;;3.90;1.90;;;4.50;76.80;;;;;;5048742;28;20033;-56
2020/12/27 11:32:38;;;;;;;3.20;1.40;;;4.60;75.50;;;;;;5047908;28;20056;-55
2020/12/27 11:35:04;;;;;;;5.45;1.85;;;4.60;77.30;;;;;;5037903;28;20386;-54
2020/12/27 11:37:30;;;;;;;5.15;2.05;;;4.50;76.90;;;;;;5030807;28;20453;-58
2020/12/27 11:39:55;;;;;;;3.05;1.70;;;4.60;76.30;;;;;;5040990;28;20036;-55
2020/12/27 11:42:25;;;;;;;3.85;1.40;;;4.70;75.80;;;;;;5045369;28;20057;-55
2020/12/27 11:44:51;;;;;;;4.00;1.95;;;4.60;75.70;;;;;;5037358;28;20144;-52
2020/12/27 11:47:17;;;;;;;4.45;1.77;;;4.50;77.90;;;;;;5041539;28;20061;-56
2020/12/27 11:49:43;;;;;;;3.17;1.30;;;4.50;75.90;;;;;;5039237;28;20065;-57
2020/12/27 11:52:09;;;;;;;3.55;1.60;;;4.60;75.40;;;;;;5048853;28;20040;-53
2020/12/27 11:54:34;;;;;;;3.67;1.25;;;4.60;75.20;;;;;;5044813;28;20727;-57
2020/12/27 11:57:00;;;;;;;4.38;1.17;;;4.60;76.30;;;;;;5042690;28;20036;-55
2020/12/27 11:59:26;;;;;;;2.58;1.52;;;4.40;77.60;;;;;;5040230;28;20436;-55
2020/12/27 12:01:52;;;;;;;3.30;1.40;;;4.30;78.20;;;;;;5044568;28;20087;-53
2020/12/27 12:04:18;;;;;;;3.35;1.65;;;4.30;76.90;;;;;;5051228;28;20110;-54
2020/12/27 12:06:44;;;;;;;3.20;0.93;;;4.50;74.90;;;;;;5047520;28;20509;-56
2020/12/27 12:09:10;;;;;;;2.90;1.20;;;4.60;75.70;;;;;;5045236;28;20123;-53
2020/12/27 12:11:38;;;;;;;2.53;0.85;;;4.50;76.30;;;;;;5046021;28;20037;-56
2020/12/27 12:14:05;;;;;;;2.95;1.17;;;4.40;77.10;;;;;;5041866;28;20064;-55
2020/12/27 12:16:31;;;;;;;2.67;1.30;;;4.50;77.70;;;;;;5043772;28;20040;-55
2020/12/27 12:18:58;;;;;;;2.10;1.25;;;4.50;76.10;;;;;;5045737;28;20085;-56
2020/12/27 12:21:25;;;;;;;3.67;1.10;;;4.50;76.80;;;;;;5031840;28;20048;-56
2020/12/27 12:23:50;;;;;;;4.53;1.77;;;4.40;77.20;;;;;;5043192;28;20032;-56
2020/12/27 12:26:27;;;;;;;2.60;1.23;;;4.40;78.20;;;;;;5030731;28;20040;-55
2020/12/27 12:28:54;;;;;;;3.50;1.30;;;4.60;74.80;;;;;;5032234;28;20139;-56
2020/12/27 12:31:20;;;;;;;2.38;1.33;;;4.60;75.40;;;;;;5035811;28;20037;-55
2020/12/27 12:33:47;;;;;;;3.08;1.55;;;4.60;74.60;;;;;;5040928;28;20033;-55
2020/12/27 12:36:14;;;;;;;2.85;1.15;;;4.70;75.20;;;;;;5045742;28;20668;-57
2020/12/27 12:38:40;;;;;;;3.28;1.40;;;4.70;75.80;;;;;;5043890;28;20045;-56
2020/12/27 12:41:10;;;;;;;3.35;1.40;;;4.70;75.50;;;;;;5048096;28;20082;-57
2020/12/27 12:43:40;;;;;;;5.07;1.58;;;4.80;74.50;;;;;;5040636;28;20037;-53
2020/12/27 12:46:07;;;;;;;5.57;2.38;;;4.70;74.20;;;;;;5037764;28;20540;-57
2020/12/27 12:48:33;;;;;;;2.97;1.23;;;4.70;75.20;;;;;;5035917;28;20039;-57
2020/12/27 12:50:59;;;;;;;2.70;1.27;;;4.70;75.20;;;;;;5039019;28;20111;-57
2020/12/27 12:53:25;;;;;;;2.67;1.20;;;4.70;75.00;;;;;;5043170;28;20102;-59
2020/12/27 12:55:51;;;;;;;4.00;1.52;;;4.70;74.60;;;;;;5043563;28;20029;-56
2020/12/27 12:58:17;;;;;;;4.60;1.40;;;4.70;74.70;;;;;;5044667;28;20032;-58
2020/12/27 13:00:42;;;;;;;5.07;1.48;;;4.70;74.40;;;;;;5043460;28;20051;-51
2020/12/27 13:03:08;;;;;;;4.00;1.38;;;4.70;75.70;;;;;;5034197;28;20037;-57
2020/12/27 13:05:34;;;;;;;3.50;1.42;;;4.70;76.20;;;;;;5035883;28;20651;-56